sensor_id;sensor_type;location;lat;lon;timestamp;P1;durP1;ratioP1;P2;durP2;ratioP2
4873;SDS011;2451;49.970;9.068;2023-07-09T00:00:59;12.10;;;5.30;;
4873;SDS011;2451;49.970;9.068;2023-07-09T00:03:24;8.43;;;5.47;;
4873;SDS011;2451;49.970;9.068;2023-07-09T00:05:50;7.75;;;5.20;;
4873;SDS011;2451;49.970;9.068;2023-07-09T00:08:22;8.93;;;5.32;;
4873;SDS011;2451;49.970;9.068;2023-07-09T00:10:54;7.65;;;5.40;;
4873;SDS011;2451;49.970;9.068;2023-07-09T00:13:20;7.93;;;5.20;;
4873;SDS011;2451;49.970;9.068;2023-07-09T00:15:47;9.57;;;5.03;;
4873;SDS011;2451;49.970;9.068;2023-07-09T00:18:13;9.23;;;5.60;;
4873;SDS011;2451;49.970;9.068;2023-07-09T00:20:39;10.02;;;5.43;;
4873;SDS011;2451;49.970;9.068;2023-07-09T00:23:06;9.38;;;5.40;;
4873;SDS011;2451;49.970;9.068;2023-07-09T00:25:32;9.27;;;5.35;;
4873;SDS011;2451;49.970;9.068;2023-07-09T00:28:00;9.93;;;5.03;;
4873;SDS011;2451;49.970;9.068;2023-07-09T00:30:26;9.50;;;5.60;;
4873;SDS011;2451;49.970;9.068;2023-07-09T00:32:52;10.25;;;6.22;;
4873;SDS011;2451;49.970;9.068;2023-07-09T00:35:19;9.18;;;5.85;;
4873;SDS011;2451;49.970;9.068;2023-07-09T00:37:47;9.07;;;5.53;;
4873;SDS011;2451;49.970;9.068;2023-07-09T00:40:16;8.98;;;5.93;;
4873;SDS011;2451;49.970;9.068;2023-07-09T00:42:48;11.85;;;6.22;;
4873;SDS011;2451;49.970;9.068;2023-07-09T00:45:25;11.65;;;5.88;;
4873;SDS011;2451;49.970;9.068;2023-07-09T00:47:55;8.13;;;5.63;;
4873;SDS011;2451;49.970;9.068;2023-07-09T00:50:34;9.50;;;5.88;;
4873;SDS011;2451;49.970;9.068;2023-07-09T00:53:20;10.45;;;5.90;;
4873;SDS011;2451;49.970;9.068;2023-07-09T00:55:50;10.27;;;6.30;;
4873;SDS011;2451;49.970;9.068;2023-07-09T00:58:21;10.40;;;5.93;;
4873;SDS011;2451;49.970;9.068;2023-07-09T01:00:52;11.82;;;6.35;;
4873;SDS011;2451;49.970;9.068;2023-07-09T01:03:30;9.88;;;6.25;;
4873;SDS011;2451;49.970;9.068;2023-07-09T01:05:59;10.45;;;6.75;;
4873;SDS011;2451;49.970;9.068;2023-07-09T01:08:26;11.40;;;6.30;;
4873;SDS011;2451;49.970;9.068;2023-07-09T01:13:21;12.50;;;6.45;;
4873;SDS011;2451;49.970;9.068;2023-07-09T01:15:46;11.13;;;5.63;;
4873;SDS011;2451;49.970;9.068;2023-07-09T01:18:12;11.60;;;6.10;;
4873;SDS011;2451;49.970;9.068;2023-07-09T01:20:39;12.15;;;6.30;;
4873;SDS011;2451;49.970;9.068;2023-07-09T01:23:06;10.85;;;6.32;;
4873;SDS011;2451;49.970;9.068;2023-07-09T01:25:32;11.57;;;6.15;;
4873;SDS011;2451;49.970;9.068;2023-07-09T01:27:58;10.98;;;6.40;;
4873;SDS011;2451;49.970;9.068;2023-07-09T01:30:35;10.13;;;5.88;;
4873;SDS011;2451;49.970;9.068;2023-07-09T01:33:02;11.57;;;6.38;;
4873;SDS011;2451;49.970;9.068;2023-07-09T01:35:29;10.90;;;6.30;;
4873;SDS011;2451;49.970;9.068;2023-07-09T01:37:57;8.57;;;6.07;;
4873;SDS011;2451;49.970;9.068;2023-07-09T01:40:24;10.90;;;6.30;;
4873;SDS011;2451;49.970;9.068;2023-07-09T01:42:52;11.02;;;6.40;;
4873;SDS011;2451;49.970;9.068;2023-07-09T01:45:20;11.38;;;6.25;;
4873;SDS011;2451;49.970;9.068;2023-07-09T01:47:46;11.27;;;6.80;;
4873;SDS011;2451;49.970;9.068;2023-07-09T01:50:11;10.63;;;6.00;;
4873;SDS011;2451;49.970;9.068;2023-07-09T01:52:38;8.68;;;6.35;;
4873;SDS011;2451;49.970;9.068;2023-07-09T01:55:08;11.90;;;6.40;;
4873;SDS011;2451;49.970;9.068;2023-07-09T01:57:35;9.93;;;6.13;;
4873;SDS011;2451;49.970;9.068;2023-07-09T02:00:03;9.45;;;6.65;;
4873;SDS011;2451;49.970;9.068;2023-07-09T02:02:34;9.85;;;6.22;;
4873;SDS011;2451;49.970;9.068;2023-07-09T02:05:01;9.63;;;6.22;;
4873;SDS011;2451;49.970;9.068;2023-07-09T02:07:27;9.45;;;6.22;;
4873;SDS011;2451;49.970;9.068;2023-07-09T02:09:52;9.75;;;5.82;;
4873;SDS011;2451;49.970;9.068;2023-07-09T02:12:18;8.48;;;5.85;;
4873;SDS011;2451;49.970;9.068;2023-07-09T02:14:44;9.07;;;6.40;;
4873;SDS011;2451;49.970;9.068;2023-07-09T02:17:11;9.32;;;5.88;;
4873;SDS011;2451;49.970;9.068;2023-07-09T02:19:38;10.02;;;6.38;;
4873;SDS011;2451;49.970;9.068;2023-07-09T02:22:03;9.77;;;6.65;;
4873;SDS011;2451;49.970;9.068;2023-07-09T02:24:30;8.65;;;5.78;;
4873;SDS011;2451;49.970;9.068;2023-07-09T02:26:57;11.00;;;5.70;;
4873;SDS011;2451;49.970;9.068;2023-07-09T02:29:24;11.05;;;6.45;;
4873;SDS011;2451;49.970;9.068;2023-07-09T02:31:51;9.88;;;6.30;;
4873;SDS011;2451;49.970;9.068;2023-07-09T02:34:18;11.25;;;6.22;;
4873;SDS011;2451;49.970;9.068;2023-07-09T02:36:44;9.98;;;6.57;;
4873;SDS011;2451;49.970;9.068;2023-07-09T02:39:10;8.23;;;6.03;;
4873;SDS011;2451;49.970;9.068;2023-07-09T02:41:36;12.70;;;6.38;;
4873;SDS011;2451;49.970;9.068;2023-07-09T02:44:02;10.60;;;6.43;;
4873;SDS011;2451;49.970;9.068;2023-07-09T02:46:28;11.93;;;6.80;;
4873;SDS011;2451;49.970;9.068;2023-07-09T02:48:54;9.95;;;6.60;;
4873;SDS011;2451;49.970;9.068;2023-07-09T02:51:20;11.23;;;6.32;;
4873;SDS011;2451;49.970;9.068;2023-07-09T02:53:45;10.63;;;5.93;;
4873;SDS011;2451;49.970;9.068;2023-07-09T02:56:11;9.93;;;6.57;;
4873;SDS011;2451;49.970;9.068;2023-07-09T02:58:36;8.50;;;6.55;;
4873;SDS011;2451;49.970;9.068;2023-07-09T03:01:02;10.00;;;6.80;;
4873;SDS011;2451;49.970;9.068;2023-07-09T03:03:28;9.80;;;6.30;;
4873;SDS011;2451;49.970;9.068;2023-07-09T03:05:54;8.32;;;6.30;;
4873;SDS011;2451;49.970;9.068;2023-07-09T03:08:19;9.57;;;6.20;;
4873;SDS011;2451;49.970;9.068;2023-07-09T03:10:45;10.70;;;6.07;;
4873;SDS011;2451;49.970;9.068;2023-07-09T03:13:10;8.98;;;5.72;;
4873;SDS011;2451;49.970;9.068;2023-07-09T03:15:36;8.85;;;5.78;;
4873;SDS011;2451;49.970;9.068;2023-07-09T03:18:01;9.43;;;6.03;;
4873;SDS011;2451;49.970;9.068;2023-07-09T03:20:27;13.18;;;6.88;;
4873;SDS011;2451;49.970;9.068;2023-07-09T03:22:53;9.05;;;6.38;;
4873;SDS011;2451;49.970;9.068;2023-07-09T03:25:18;9.45;;;6.22;;
4873;SDS011;2451;49.970;9.068;2023-07-09T03:27:46;11.07;;;6.28;;
4873;SDS011;2451;49.970;9.068;2023-07-09T03:30:13;10.38;;;6.00;;
4873;SDS011;2451;49.970;9.068;2023-07-09T03:32:38;10.50;;;6.15;;
4873;SDS011;2451;49.970;9.068;2023-07-09T03:35:04;9.23;;;5.93;;
4873;SDS011;2451;49.970;9.068;2023-07-09T03:37:29;8.43;;;5.60;;
4873;SDS011;2451;49.970;9.068;2023-07-09T03:39:55;9.13;;;6.15;;
4873;SDS011;2451;49.970;9.068;2023-07-09T03:42:20;8.50;;;6.40;;
4873;SDS011;2451;49.970;9.068;2023-07-09T03:44:46;9.77;;;6.63;;
4873;SDS011;2451;49.970;9.068;2023-07-09T03:47:12;10.18;;;6.63;;
4873;SDS011;2451;49.970;9.068;2023-07-09T03:49:37;10.23;;;6.13;;
4873;SDS011;2451;49.970;9.068;2023-07-09T03:52:03;9.20;;;6.03;;
4873;SDS011;2451;49.970;9.068;2023-07-09T03:54:29;10.30;;;6.22;;
4873;SDS011;2451;49.970;9.068;2023-07-09T03:56:54;9.07;;;6.38;;
4873;SDS011;2451;49.970;9.068;2023-07-09T03:59:20;9.27;;;6.15;;
4873;SDS011;2451;49.970;9.068;2023-07-09T04:01:45;11.80;;;5.95;;
4873;SDS011;2451;49.970;9.068;2023-07-09T04:04:12;10.80;;;6.72;;
4873;SDS011;2451;49.970;9.068;2023-07-09T04:06:38;9.02;;;6.00;;
4873;SDS011;2451;49.970;9.068;2023-07-09T04:09:03;11.30;;;6.05;;
4873;SDS011;2451;49.970;9.068;2023-07-09T04:11:29;7.95;;;5.90;;
4873;SDS011;2451;49.970;9.068;2023-07-09T04:13:54;12.13;;;6.35;;
4873;SDS011;2451;49.970;9.068;2023-07-09T04:16:20;9.85;;;6.00;;
4873;SDS011;2451;49.970;9.068;2023-07-09T04:18:45;10.93;;;5.78;;
4873;SDS011;2451;49.970;9.068;2023-07-09T04:21:11;9.23;;;6.05;;
4873;SDS011;2451;49.970;9.068;2023-07-09T04:23:37;9.10;;;6.25;;
4873;SDS011;2451;49.970;9.068;2023-07-09T04:26:02;10.43;;;6.57;;
4873;SDS011;2451;49.970;9.068;2023-07-09T04:28:29;9.40;;;6.28;;
4873;SDS011;2451;49.970;9.068;2023-07-09T04:30:55;10.88;;;6.38;;
4873;SDS011;2451;49.970;9.068;2023-07-09T04:33:21;9.35;;;6.10;;
4873;SDS011;2451;49.970;9.068;2023-07-09T04:35:46;11.55;;;6.57;;
4873;SDS011;2451;49.970;9.068;2023-07-09T04:38:13;9.93;;;6.85;;
4873;SDS011;2451;49.970;9.068;2023-07-09T04:40:39;10.90;;;6.03;;
4873;SDS011;2451;49.970;9.068;2023-07-09T04:43:06;10.05;;;6.60;;
4873;SDS011;2451;49.970;9.068;2023-07-09T04:45:31;10.27;;;7.30;;
4873;SDS011;2451;49.970;9.068;2023-07-09T04:47:57;9.80;;;6.35;;
4873;SDS011;2451;49.970;9.068;2023-07-09T04:50:22;12.25;;;7.03;;
4873;SDS011;2451;49.970;9.068;2023-07-09T04:52:48;9.95;;;6.90;;
4873;SDS011;2451;49.970;9.068;2023-07-09T04:55:13;11.23;;;7.00;;
4873;SDS011;2451;49.970;9.068;2023-07-09T04:57:39;10.88;;;7.50;;
4873;SDS011;2451;49.970;9.068;2023-07-09T05:00:05;11.20;;;6.82;;
4873;SDS011;2451;49.970;9.068;2023-07-09T05:02:31;9.65;;;6.53;;
4873;SDS011;2451;49.970;9.068;2023-07-09T05:04:57;11.57;;;6.93;;
4873;SDS011;2451;49.970;9.068;2023-07-09T05:07:22;8.45;;;6.35;;
4873;SDS011;2451;49.970;9.068;2023-07-09T05:09:48;10.73;;;6.60;;
4873;SDS011;2451;49.970;9.068;2023-07-09T05:12:14;10.20;;;6.57;;
4873;SDS011;2451;49.970;9.068;2023-07-09T05:14:39;9.80;;;6.07;;
4873;SDS011;2451;49.970;9.068;2023-07-09T05:17:05;8.95;;;6.47;;
4873;SDS011;2451;49.970;9.068;2023-07-09T05:19:32;11.30;;;6.15;;
4873;SDS011;2451;49.970;9.068;2023-07-09T05:21:58;10.23;;;6.57;;
4873;SDS011;2451;49.970;9.068;2023-07-09T05:24:24;10.85;;;7.10;;
4873;SDS011;2451;49.970;9.068;2023-07-09T05:26:49;10.63;;;6.40;;
4873;SDS011;2451;49.970;9.068;2023-07-09T05:29:15;9.77;;;6.57;;
4873;SDS011;2451;49.970;9.068;2023-07-09T05:31:40;12.25;;;7.30;;
4873;SDS011;2451;49.970;9.068;2023-07-09T05:34:07;10.00;;;6.80;;
4873;SDS011;2451;49.970;9.068;2023-07-09T05:36:33;11.05;;;6.63;;
4873;SDS011;2451;49.970;9.068;2023-07-09T05:38:58;9.68;;;6.55;;
4873;SDS011;2451;49.970;9.068;2023-07-09T05:41:24;10.93;;;7.60;;
4873;SDS011;2451;49.970;9.068;2023-07-09T05:43:50;10.40;;;6.55;;
4873;SDS011;2451;49.970;9.068;2023-07-09T05:46:16;10.90;;;7.00;;
4873;SDS011;2451;49.970;9.068;2023-07-09T05:48:42;11.25;;;7.10;;
4873;SDS011;2451;49.970;9.068;2023-07-09T05:51:07;10.77;;;7.05;;
4873;SDS011;2451;49.970;9.068;2023-07-09T05:53:33;12.13;;;6.75;;
4873;SDS011;2451;49.970;9.068;2023-07-09T05:55:59;11.30;;;6.22;;
4873;SDS011;2451;49.970;9.068;2023-07-09T05:58:24;9.65;;;6.60;;
4873;SDS011;2451;49.970;9.068;2023-07-09T06:00:53;9.32;;;6.82;;
4873;SDS011;2451;49.970;9.068;2023-07-09T06:03:22;11.98;;;6.93;;
4873;SDS011;2451;49.970;9.068;2023-07-09T06:05:49;9.55;;;6.45;;
4873;SDS011;2451;49.970;9.068;2023-07-09T06:08:15;9.48;;;6.38;;
4873;SDS011;2451;49.970;9.068;2023-07-09T06:10:54;10.85;;;6.47;;
4873;SDS011;2451;49.970;9.068;2023-07-09T06:13:23;8.65;;;6.07;;
4873;SDS011;2451;49.970;9.068;2023-07-09T06:15:50;10.65;;;6.60;;
4873;SDS011;2451;49.970;9.068;2023-07-09T06:18:16;9.18;;;5.82;;
4873;SDS011;2451;49.970;9.068;2023-07-09T06:20:45;9.98;;;6.00;;
4873;SDS011;2451;49.970;9.068;2023-07-09T06:23:15;8.23;;;5.82;;
4873;SDS011;2451;49.970;9.068;2023-07-09T06:25:42;10.02;;;5.68;;
4873;SDS011;2451;49.970;9.068;2023-07-09T06:28:08;8.90;;;6.03;;
4873;SDS011;2451;49.970;9.068;2023-07-09T06:30:35;8.68;;;5.93;;
4873;SDS011;2451;49.970;9.068;2023-07-09T06:33:01;15.40;;;6.30;;
4873;SDS011;2451;49.970;9.068;2023-07-09T06:35:26;8.95;;;6.00;;
4873;SDS011;2451;49.970;9.068;2023-07-09T06:37:52;9.68;;;5.90;;
4873;SDS011;2451;49.970;9.068;2023-07-09T06:40:18;10.98;;;5.72;;
4873;SDS011;2451;49.970;9.068;2023-07-09T06:42:43;7.95;;;5.93;;
4873;SDS011;2451;49.970;9.068;2023-07-09T06:45:09;8.40;;;5.75;;
4873;SDS011;2451;49.970;9.068;2023-07-09T06:47:35;9.32;;;6.40;;
4873;SDS011;2451;49.970;9.068;2023-07-09T06:50:00;9.23;;;5.88;;
4873;SDS011;2451;49.970;9.068;2023-07-09T06:52:26;10.95;;;6.00;;
4873;SDS011;2451;49.970;9.068;2023-07-09T06:54:51;9.75;;;5.95;;
4873;SDS011;2451;49.970;9.068;2023-07-09T06:57:17;8.98;;;5.60;;
4873;SDS011;2451;49.970;9.068;2023-07-09T06:59:42;9.23;;;5.68;;
4873;SDS011;2451;49.970;9.068;2023-07-09T07:02:08;8.45;;;5.60;;
4873;SDS011;2451;49.970;9.068;2023-07-09T07:04:33;8.93;;;5.25;;
4873;SDS011;2451;49.970;9.068;2023-07-09T07:06:59;9.15;;;5.45;;
4873;SDS011;2451;49.970;9.068;2023-07-09T07:09:24;9.68;;;5.80;;
4873;SDS011;2451;49.970;9.068;2023-07-09T07:11:50;8.48;;;5.20;;
4873;SDS011;2451;49.970;9.068;2023-07-09T07:14:16;10.23;;;5.40;;
4873;SDS011;2451;49.970;9.068;2023-07-09T07:16:41;8.10;;;5.55;;
4873;SDS011;2451;49.970;9.068;2023-07-09T07:19:07;8.65;;;4.80;;
4873;SDS011;2451;49.970;9.068;2023-07-09T07:21:32;8.35;;;5.13;;
4873;SDS011;2451;49.970;9.068;2023-07-09T07:23:58;9.75;;;5.07;;
4873;SDS011;2451;49.970;9.068;2023-07-09T07:26:23;9.65;;;5.00;;
4873;SDS011;2451;49.970;9.068;2023-07-09T07:28:49;6.82;;;4.68;;
4873;SDS011;2451;49.970;9.068;2023-07-09T07:31:15;8.23;;;5.03;;
4873;SDS011;2451;49.970;9.068;2023-07-09T07:33:41;10.00;;;5.40;;
4873;SDS011;2451;49.970;9.068;2023-07-09T07:36:07;9.80;;;5.00;;
4873;SDS011;2451;49.970;9.068;2023-07-09T07:38:33;11.68;;;5.22;;
4873;SDS011;2451;49.970;9.068;2023-07-09T07:41:00;9.55;;;4.80;;
4873;SDS011;2451;49.970;9.068;2023-07-09T07:43:26;7.55;;;4.50;;
4873;SDS011;2451;49.970;9.068;2023-07-09T07:45:51;7.38;;;4.82;;
4873;SDS011;2451;49.970;9.068;2023-07-09T07:48:17;7.78;;;4.45;;
4873;SDS011;2451;49.970;9.068;2023-07-09T07:50:43;7.50;;;4.93;;
4873;SDS011;2451;49.970;9.068;2023-07-09T07:53:10;7.57;;;4.70;;
4873;SDS011;2451;49.970;9.068;2023-07-09T07:55:36;8.23;;;4.50;;
4873;SDS011;2451;49.970;9.068;2023-07-09T07:58:03;8.23;;;4.30;;
4873;SDS011;2451;49.970;9.068;2023-07-09T08:00:29;8.20;;;4.68;;
4873;SDS011;2451;49.970;9.068;2023-07-09T08:02:55;6.93;;;4.13;;
4873;SDS011;2451;49.970;9.068;2023-07-09T08:05:21;11.18;;;5.22;;
4873;SDS011;2451;49.970;9.068;2023-07-09T08:07:48;7.80;;;4.50;;
4873;SDS011;2451;49.970;9.068;2023-07-09T08:10:14;7.03;;;4.15;;
4873;SDS011;2451;49.970;9.068;2023-07-09T08:12:40;5.90;;;3.90;;
4873;SDS011;2451;49.970;9.068;2023-07-09T08:15:06;9.68;;;4.50;;
4873;SDS011;2451;49.970;9.068;2023-07-09T08:17:32;7.38;;;4.30;;
4873;SDS011;2451;49.970;9.068;2023-07-09T08:19:57;8.38;;;4.88;;
4873;SDS011;2451;49.970;9.068;2023-07-09T08:22:23;5.68;;;4.22;;
4873;SDS011;2451;49.970;9.068;2023-07-09T08:24:49;6.47;;;4.40;;
4873;SDS011;2451;49.970;9.068;2023-07-09T08:27:16;9.18;;;4.60;;
4873;SDS011;2451;49.970;9.068;2023-07-09T08:29:42;6.30;;;4.45;;
4873;SDS011;2451;49.970;9.068;2023-07-09T08:32:08;6.30;;;4.10;;
4873;SDS011;2451;49.970;9.068;2023-07-09T08:34:38;8.85;;;4.80;;
4873;SDS011;2451;49.970;9.068;2023-07-09T08:37:05;8.73;;;4.38;;
4873;SDS011;2451;49.970;9.068;2023-07-09T08:39:32;9.02;;;4.00;;
4873;SDS011;2451;49.970;9.068;2023-07-09T08:41:59;9.90;;;4.63;;
4873;SDS011;2451;49.970;9.068;2023-07-09T08:44:47;10.35;;;4.53;;
4873;SDS011;2451;49.970;9.068;2023-07-09T08:47:31;7.40;;;4.40;;
4873;SDS011;2451;49.970;9.068;2023-07-09T08:52:41;7.13;;;4.30;;
4873;SDS011;2451;49.970;9.068;2023-07-09T08:55:12;7.65;;;4.10;;
4873;SDS011;2451;49.970;9.068;2023-07-09T08:57:53;7.93;;;3.90;;
4873;SDS011;2451;49.970;9.068;2023-07-09T09:00:26;8.50;;;4.00;;
4873;SDS011;2451;49.970;9.068;2023-07-09T09:02:55;8.55;;;4.03;;
4873;SDS011;2451;49.970;9.068;2023-07-09T09:05:27;8.55;;;3.88;;
4873;SDS011;2451;49.970;9.068;2023-07-09T09:07:58;6.57;;;3.78;;
4873;SDS011;2451;49.970;9.068;2023-07-09T09:10:36;7.07;;;3.80;;
4873;SDS011;2451;49.970;9.068;2023-07-09T09:13:08;11.32;;;4.03;;
4873;SDS011;2451;49.970;9.068;2023-07-09T09:15:38;10.10;;;4.43;;
4873;SDS011;2451;49.970;9.068;2023-07-09T09:20:52;7.35;;;3.83;;
4873;SDS011;2451;49.970;9.068;2023-07-09T09:23:22;6.88;;;4.05;;
4873;SDS011;2451;49.970;9.068;2023-07-09T09:25:51;6.95;;;4.00;;
4873;SDS011;2451;49.970;9.068;2023-07-09T09:28:20;8.48;;;4.55;;
4873;SDS011;2451;49.970;9.068;2023-07-09T09:30:47;8.52;;;3.70;;
4873;SDS011;2451;49.970;9.068;2023-07-09T09:33:12;9.23;;;3.75;;
4873;SDS011;2451;49.970;9.068;2023-07-09T09:35:43;5.97;;;3.47;;
4873;SDS011;2451;49.970;9.068;2023-07-09T09:38:15;7.88;;;3.90;;
4873;SDS011;2451;49.970;9.068;2023-07-09T09:40:46;7.63;;;4.10;;
4873;SDS011;2451;49.970;9.068;2023-07-09T09:43:13;8.77;;;4.35;;
4873;SDS011;2451;49.970;9.068;2023-07-09T09:45:41;6.07;;;3.67;;
4873;SDS011;2451;49.970;9.068;2023-07-09T09:48:11;8.05;;;4.00;;
4873;SDS011;2451;49.970;9.068;2023-07-09T09:50:40;7.25;;;3.50;;
4873;SDS011;2451;49.970;9.068;2023-07-09T09:53:07;7.68;;;3.75;;
4873;SDS011;2451;49.970;9.068;2023-07-09T09:55:37;6.10;;;3.92;;
4873;SDS011;2451;49.970;9.068;2023-07-09T10:00:36;7.95;;;3.75;;
4873;SDS011;2451;49.970;9.068;2023-07-09T10:03:02;7.72;;;4.25;;
4873;SDS011;2451;49.970;9.068;2023-07-09T10:05:32;8.13;;;3.75;;
4873;SDS011;2451;49.970;9.068;2023-07-09T10:08:06;8.70;;;3.90;;
4873;SDS011;2451;49.970;9.068;2023-07-09T10:10:34;8.20;;;4.03;;
4873;SDS011;2451;49.970;9.068;2023-07-09T10:16:07;8.93;;;5.30;;
4873;SDS011;2451;49.970;9.068;2023-07-09T10:22:09;9.45;;;4.18;;
4873;SDS011;2451;49.970;9.068;2023-07-09T10:25:02;6.82;;;3.60;;
4873;SDS011;2451;49.970;9.068;2023-07-09T10:27:57;6.60;;;3.40;;
4873;SDS011;2451;49.970;9.068;2023-07-09T10:33:49;7.68;;;3.90;;
4873;SDS011;2451;49.970;9.068;2023-07-09T10:39:51;6.68;;;3.60;;
4873;SDS011;2451;49.970;9.068;2023-07-09T10:42:06;4.82;;;3.38;;
4873;SDS011;2451;49.970;9.068;2023-07-09T10:44:56;7.38;;;3.63;;
4873;SDS011;2451;49.970;9.068;2023-07-09T10:47:41;5.82;;;3.70;;
4873;SDS011;2451;49.970;9.068;2023-07-09T10:50:12;6.97;;;3.70;;
4873;SDS011;2451;49.970;9.068;2023-07-09T10:52:44;6.88;;;3.90;;
4873;SDS011;2451;49.970;9.068;2023-07-09T10:55:21;7.18;;;3.88;;
4873;SDS011;2451;49.970;9.068;2023-07-09T10:57:56;5.63;;;3.50;;
4873;SDS011;2451;49.970;9.068;2023-07-09T11:00:31;5.90;;;3.42;;
4873;SDS011;2451;49.970;9.068;2023-07-09T11:03:08;6.30;;;3.83;;
4873;SDS011;2451;49.970;9.068;2023-07-09T11:05:41;8.52;;;3.88;;
4873;SDS011;2451;49.970;9.068;2023-07-09T11:08:10;5.47;;;3.50;;
4873;SDS011;2451;49.970;9.068;2023-07-09T11:10:52;6.28;;;3.58;;
4873;SDS011;2451;49.970;9.068;2023-07-09T11:13:26;6.82;;;3.72;;
4873;SDS011;2451;49.970;9.068;2023-07-09T11:15:59;6.18;;;3.53;;
4873;SDS011;2451;49.970;9.068;2023-07-09T11:18:32;6.68;;;3.50;;
4873;SDS011;2451;49.970;9.068;2023-07-09T11:23:35;6.13;;;3.63;;
4873;SDS011;2451;49.970;9.068;2023-07-09T11:26:14;9.77;;;3.72;;
4873;SDS011;2451;49.970;9.068;2023-07-09T11:28:50;7.57;;;3.75;;
4873;SDS011;2451;49.970;9.068;2023-07-09T11:34:28;8.02;;;3.92;;
4873;SDS011;2451;49.970;9.068;2023-07-09T11:39:27;6.13;;;3.67;;
4873;SDS011;2451;49.970;9.068;2023-07-09T11:41:55;8.73;;;3.80;;
4873;SDS011;2451;49.970;9.068;2023-07-09T11:44:32;8.95;;;3.67;;
4873;SDS011;2451;49.970;9.068;2023-07-09T11:47:07;9.05;;;4.18;;
4873;SDS011;2451;49.970;9.068;2023-07-09T11:49:46;8.32;;;3.58;;
4873;SDS011;2451;49.970;9.068;2023-07-09T11:57:56;7.10;;;3.60;;
4873;SDS011;2451;49.970;9.068;2023-07-09T12:00:24;6.53;;;3.67;;
4873;SDS011;2451;49.970;9.068;2023-07-09T12:02:54;6.43;;;3.55;;
4873;SDS011;2451;49.970;9.068;2023-07-09T12:05:21;6.05;;;3.80;;
4873;SDS011;2451;49.970;9.068;2023-07-09T12:07:51;6.20;;;3.67;;
4873;SDS011;2451;49.970;9.068;2023-07-09T12:10:21;7.43;;;3.60;;
4873;SDS011;2451;49.970;9.068;2023-07-09T12:12:53;7.72;;;3.85;;
4873;SDS011;2451;49.970;9.068;2023-07-09T12:15:22;7.78;;;3.90;;
4873;SDS011;2451;49.970;9.068;2023-07-09T12:18:31;8.65;;;3.55;;
4873;SDS011;2451;49.970;9.068;2023-07-09T12:20:39;8.25;;;4.07;;
4873;SDS011;2451;49.970;9.068;2023-07-09T12:23:18;8.07;;;3.60;;
4873;SDS011;2451;49.970;9.068;2023-07-09T12:25:50;9.07;;;3.72;;
4873;SDS011;2451;49.970;9.068;2023-07-09T12:28:17;9.30;;;4.05;;
4873;SDS011;2451;49.970;9.068;2023-07-09T12:30:47;7.38;;;4.28;;
4873;SDS011;2451;49.970;9.068;2023-07-09T12:33:21;11.40;;;4.15;;
4873;SDS011;2451;49.970;9.068;2023-07-09T12:35:58;5.25;;;3.53;;
4873;SDS011;2451;49.970;9.068;2023-07-09T12:38:27;6.20;;;3.47;;
4873;SDS011;2451;49.970;9.068;2023-07-09T12:40:59;6.82;;;3.70;;
4873;SDS011;2451;49.970;9.068;2023-07-09T12:43:26;6.78;;;3.78;;
4873;SDS011;2451;49.970;9.068;2023-07-09T12:48:21;8.82;;;3.75;;
4873;SDS011;2451;49.970;9.068;2023-07-09T12:50:49;6.93;;;3.90;;
4873;SDS011;2451;49.970;9.068;2023-07-09T12:53:17;6.78;;;4.10;;
4873;SDS011;2451;49.970;9.068;2023-07-09T12:55:46;8.05;;;4.00;;
4873;SDS011;2451;49.970;9.068;2023-07-09T12:58:18;8.85;;;3.80;;
4873;SDS011;2451;49.970;9.068;2023-07-09T13:00:49;6.82;;;3.47;;
4873;SDS011;2451;49.970;9.068;2023-07-09T13:03:16;7.93;;;4.07;;
4873;SDS011;2451;49.970;9.068;2023-07-09T13:05:53;8.73;;;3.67;;
4873;SDS011;2451;49.970;9.068;2023-07-09T13:08:23;6.47;;;4.07;;
4873;SDS011;2451;49.970;9.068;2023-07-09T13:13:16;8.40;;;3.95;;
4873;SDS011;2451;49.970;9.068;2023-07-09T13:15:47;7.05;;;3.55;;
4873;SDS011;2451;49.970;9.068;2023-07-09T13:18:15;6.40;;;3.53;;
4873;SDS011;2451;49.970;9.068;2023-07-09T13:20:42;6.53;;;3.78;;
4873;SDS011;2451;49.970;9.068;2023-07-09T13:23:10;7.90;;;3.42;;
4873;SDS011;2451;49.970;9.068;2023-07-09T13:25:38;6.03;;;3.70;;
4873;SDS011;2451;49.970;9.068;2023-07-09T13:28:07;7.63;;;4.07;;
4873;SDS011;2451;49.970;9.068;2023-07-09T13:30:40;6.05;;;3.70;;
4873;SDS011;2451;49.970;9.068;2023-07-09T13:33:09;7.03;;;4.15;;
4873;SDS011;2451;49.970;9.068;2023-07-09T13:35:36;8.40;;;3.78;;
4873;SDS011;2451;49.970;9.068;2023-07-09T13:38:02;6.80;;;3.80;;
4873;SDS011;2451;49.970;9.068;2023-07-09T13:40:29;8.13;;;3.65;;
4873;SDS011;2451;49.970;9.068;2023-07-09T13:42:55;6.20;;;3.67;;
4873;SDS011;2451;49.970;9.068;2023-07-09T13:45:22;5.57;;;3.55;;
4873;SDS011;2451;49.970;9.068;2023-07-09T13:47:49;7.05;;;3.60;;
4873;SDS011;2451;49.970;9.068;2023-07-09T13:50:17;6.32;;;3.67;;
4873;SDS011;2451;49.970;9.068;2023-07-09T13:52:43;8.38;;;3.95;;
4873;SDS011;2451;49.970;9.068;2023-07-09T13:55:16;7.60;;;4.20;;
4873;SDS011;2451;49.970;9.068;2023-07-09T13:57:48;6.10;;;3.78;;
4873;SDS011;2451;49.970;9.068;2023-07-09T14:00:14;7.82;;;3.85;;
4873;SDS011;2451;49.970;9.068;2023-07-09T14:02:41;7.53;;;3.95;;
4873;SDS011;2451;49.970;9.068;2023-07-09T14:05:08;10.52;;;4.10;;
4873;SDS011;2451;49.970;9.068;2023-07-09T14:07:36;8.40;;;3.63;;
4873;SDS011;2451;49.970;9.068;2023-07-09T14:10:05;7.45;;;4.18;;
4873;SDS011;2451;49.970;9.068;2023-07-09T14:12:32;9.00;;;4.00;;
4873;SDS011;2451;49.970;9.068;2023-07-09T14:14:59;6.28;;;3.63;;
4873;SDS011;2451;49.970;9.068;2023-07-09T14:17:26;9.18;;;3.65;;
4873;SDS011;2451;49.970;9.068;2023-07-09T14:19:52;8.80;;;3.53;;
4873;SDS011;2451;49.970;9.068;2023-07-09T14:22:23;6.80;;;3.88;;
4873;SDS011;2451;49.970;9.068;2023-07-09T14:24:58;8.27;;;3.60;;
4873;SDS011;2451;49.970;9.068;2023-07-09T14:27:24;6.47;;;3.58;;
4873;SDS011;2451;49.970;9.068;2023-07-09T14:29:50;7.82;;;4.10;;
4873;SDS011;2451;49.970;9.068;2023-07-09T14:34:57;6.63;;;3.83;;
4873;SDS011;2451;49.970;9.068;2023-07-09T14:37:22;8.15;;;4.00;;
4873;SDS011;2451;49.970;9.068;2023-07-09T14:39:48;7.90;;;4.00;;
4873;SDS011;2451;49.970;9.068;2023-07-09T14:42:14;6.85;;;3.42;;
4873;SDS011;2451;49.970;9.068;2023-07-09T14:44:41;8.88;;;3.15;;
4873;SDS011;2451;49.970;9.068;2023-07-09T14:47:10;7.82;;;4.00;;
4873;SDS011;2451;49.970;9.068;2023-07-09T14:49:44;7.85;;;3.95;;
4873;SDS011;2451;49.970;9.068;2023-07-09T14:52:19;9.75;;;4.00;;
4873;SDS011;2451;49.970;9.068;2023-07-09T14:54:49;9.02;;;3.95;;
4873;SDS011;2451;49.970;9.068;2023-07-09T14:57:24;7.82;;;3.60;;
4873;SDS011;2451;49.970;9.068;2023-07-09T14:59:51;8.13;;;3.88;;
4873;SDS011;2451;49.970;9.068;2023-07-09T15:02:36;5.57;;;3.50;;
4873;SDS011;2451;49.970;9.068;2023-07-09T15:05:03;6.10;;;3.83;;
4873;SDS011;2451;49.970;9.068;2023-07-09T15:07:35;7.35;;;3.80;;
4873;SDS011;2451;49.970;9.068;2023-07-09T15:10:00;10.80;;;4.05;;
4873;SDS011;2451;49.970;9.068;2023-07-09T15:12:28;9.60;;;3.40;;
4873;SDS011;2451;49.970;9.068;2023-07-09T15:17:37;10.23;;;3.60;;
4873;SDS011;2451;49.970;9.068;2023-07-09T15:20:03;7.20;;;3.45;;
4873;SDS011;2451;49.970;9.068;2023-07-09T15:22:33;8.15;;;3.55;;
4873;SDS011;2451;49.970;9.068;2023-07-09T15:25:00;7.40;;;3.85;;
4873;SDS011;2451;49.970;9.068;2023-07-09T15:27:26;7.43;;;3.72;;
4873;SDS011;2451;49.970;9.068;2023-07-09T15:29:52;8.05;;;3.60;;
4873;SDS011;2451;49.970;9.068;2023-07-09T15:32:18;6.38;;;3.40;;
4873;SDS011;2451;49.970;9.068;2023-07-09T15:34:43;6.05;;;3.65;;
4873;SDS011;2451;49.970;9.068;2023-07-09T15:37:12;27.48;;;19.38;;
4873;SDS011;2451;49.970;9.068;2023-07-09T15:39:40;11.98;;;5.88;;
4873;SDS011;2451;49.970;9.068;2023-07-09T15:42:09;10.52;;;5.80;;
4873;SDS011;2451;49.970;9.068;2023-07-09T15:44:36;8.02;;;3.83;;
4873;SDS011;2451;49.970;9.068;2023-07-09T15:47:01;7.05;;;3.72;;
4873;SDS011;2451;49.970;9.068;2023-07-09T15:49:29;6.15;;;3.40;;
4873;SDS011;2451;49.970;9.068;2023-07-09T15:51:55;8.65;;;3.72;;
4873;SDS011;2451;49.970;9.068;2023-07-09T15:54:21;7.30;;;3.63;;
4873;SDS011;2451;49.970;9.068;2023-07-09T15:56:49;6.63;;;3.53;;
4873;SDS011;2451;49.970;9.068;2023-07-09T16:01:49;6.88;;;3.72;;
4873;SDS011;2451;49.970;9.068;2023-07-09T16:04:14;8.57;;;3.72;;
4873;SDS011;2451;49.970;9.068;2023-07-09T16:06:41;6.78;;;3.55;;
4873;SDS011;2451;49.970;9.068;2023-07-09T16:09:07;8.82;;;3.63;;